首页
METAR-TAF:

METAR-TAF

机场 :

黃刀鎮, 西北特區, 加拿大

纬度: 62-28N, 经度: 114-27W, 海拔: 205米

当前天气观测

该预报发布于1小时和4分钟前的13:00 UTC
风速11节,风向东转东北,有时为17节阵风
温度 0°C
湿度 55%
气压 1029 hPa
能見度: 24.1公里
少量云层高于25000英尺

METAR: CYZF 221300Z 07011G17KT 15SM FEW250 00/M08 A3038 RMK CI1 SLP301

时间: 08:04 (14:04 UTC)

预报

该预报发布于2小时和26分钟前的11:38 UTC
预报有效从22日的 12点(UTC)到 23日的 12点(UTC)
风速12节,风向东转东北,有时为22节阵风
能見度: 10公里
天空无云
成为
从 22日的 15点(UTC)到 22日的 17点(UTC)
风速12节,风向

TAF: CYZF 221138Z 2212/2312 07012G22KT P6SM SKC BECMG 2215/2217 09012KT RMK NXT FCST BY 221800Z

超过4000个机场的气象观测和天气预报(METAR&TAF报告)。

可查询的气象台以黄色和红色小点在地图上表示。

将鼠标移到小点上方,可查看气象台名称。

然后点击查看天气观测和预报。

如需切换地图:点击带黑十字的绿色按钮放大地图;点击带横线的绿色按钮缩小地图;或者点击绿色箭头查看邻近地区的地图。


METAR-TAF: